x

East Scotia Slope (44137) Wave Buoy

6:00pm - Tue 30th Sep 2014 All times are EDT. -4 hours from GMT.

  • Sig Wave height 3.3ft
  • Peak Period 14s
  • Wind
    9mph, 11mph gusts
  • Sea Temp 72°f
  • Air Temp 71°f
  • Sea Pressure 1015.1mb
  • East Scotia Slope
  • East Scotia Slope

More Historic Weather Station data

Upgrade to MSW Pro to gain access to the past 30 days of data for over 8000 Wavebouys and Weather Stations around the globe.

Join Pro

Comparision Forecast

View Surf forecast
   
Tue 09/30 6:00pm 3.5ft 14s 9 11 mph 1015.1mb 72f 71f
5:00pm 3.5ft 6s 4 7 mph 1015.6mb 73f 72f
4:00pm 3.5ft 7s 2
mph
1015.4mb 73f 73f
3:00pm 3.5ft 14s 4
mph
1015.6mb 72f 73f
2:00pm 3.5ft 6s 7 9 mph 1015.8mb 73f 72f
1:00pm 3.5ft 6s 9 11 mph 1016mb 72f 72f
12:00pm 4ft 7s 11 13 mph 1016.4mb 72f 71f
10:00am 3.5ft 7s 11 13 mph 1017.2mb 71f 70f
9:00am 4ft 7s 11 13 mph 1017.2mb 71f 70f
8:00am 4.5ft 8s 13
mph
1017.3mb 72f 70f
7:00am 4.5ft 8s 11 13 mph 1017.3mb 72f 70f
6:00am 4.5ft 7s 13 16 mph 1016.8mb 71f 69f
5:00am 4.5ft 8s 16 18 mph 1016.7mb 71f 69f
4:00am 4.5ft 8s 16 18 mph 1016.7mb 71f 69f
3:00am 4.5ft 7s 13 16 mph 1016.8mb 71f 68f
2:00am 4.5ft 6s 13 18 mph 1017mb 71f 69f
1:00am 3ft 14s 16 18 mph 1017.3mb 71f 68f
12:00am 2.5ft 12s 13 16 mph 1017.4mb 71f 68f
Mon 09/29 11:00pm 2.5ft 12s 13 16 mph 1017.7mb 71f 68f
10:00pm 2.5ft 14s 13 16 mph 1018.2mb 71f 67f
9:00pm 2.5ft 14s 13 16 mph 1018.3mb 71f 68f
8:00pm 2.5ft 14s 13 16 mph 1017.8mb 71f 68f
7:00pm 2ft 14s 13 16 mph 1017.7mb 71f 68f
6:00pm 2ft 14s 13 16 mph 1017.6mb 71f 68f
5:00pm 2ft 14s 7 9 mph 1017.5mb 72f 70f
4:00pm 2ft 8s 2 4 mph 1017.4mb 72f 71f
3:00pm 2ft 14s 4
mph
1017.4mb 72f 71f
2:00pm 2ft 15s 2 4 mph 1017.3mb 72f 71f
1:00pm 2ft 15s 7 9 mph 1017.2mb 72f 70f
12:00pm 2.5ft 15s 7 9 mph 1017.3mb 71f 71f
11:00am 2.5ft 5s 9
mph
1017.4mb 71f 70f
10:00am 2.5ft 5s 9
mph
1017.3mb 71f 70f
9:00am 2.5ft 5s 9 13 mph 1017.4mb 71f 71f
8:00am 2.5ft 4s 11 13 mph 1017.3mb 71f 71f
7:00am 3ft  -  11 16 mph 1017.2mb 71f 71f
6:00am 3ft  -  11 13 mph 1016.9mb 71f 70f
5:00am 2.5ft 8s 16 20 mph 1016.5mb 71f 71f
4:00am 3ft  -  16 18 mph 1016.4mb 71f 71f
3:00am 2.5ft 4s 16 18 mph 1016.6mb 71f 71f
2:00am 2.5ft 3s 16 18 mph 1016.9mb 71f 71f
1:00am 2.5ft 4s 16 18 mph 1017.2mb 71f 71f
12:00am 2.5ft  -  16 18 mph 1017.3mb 71f 71f
Sun 09/28 11:00pm 2.5ft  -  16 18 mph 1017.6mb 71f 70f
10:00pm 2.5ft 8s 16 18 mph 1017.6mb 71f 70f
9:00pm 2.5ft 6s 16 18 mph 1018.1mb 71f 70f
8:00pm 2ft 7s 13
mph
1018.3mb 71f 69f
7:00pm 2.5ft 7s 11 13 mph 1018.8mb 71f 69f
6:00pm 2.5ft 7s 9 11 mph 1018.8mb 71f 69f
5:00pm 2.5ft 7s 9
mph
1019.1mb 71f 70f
4:00pm 2.5ft 7s 9
mph
1019.2mb 72f 69f
3:00pm 3ft 7s 7 9 mph 1019.7mb 72f 69f
2:00pm 2.5ft 7s 4 7 mph 1019.9mb 72f 68f
1:00pm 3ft 7s 4 7 mph 1020.5mb 72f 67f
12:00pm 2.5ft 7s 4 7 mph 1021.2mb 72f 67f
11:00am 3ft 6s 4 9 mph 1021.3mb 72f 66f
10:00am 3ft 5s 2 4 mph 1021.6mb 71f 65f
9:00am 3ft 5s 4
mph
1021.8mb 71f 65f
8:00am 3ft 8s 4 9 mph 1021.3mb 71f 65f
7:00am 2.5ft 5s 9 11 mph 1021.4mb 71f 65f
6:00am 2.5ft 9s 9 11 mph 1020.9mb 70f 64f
5:00am 3ft 8s 9 11 mph 1020.6mb 70f 64f
4:00am 3ft 8s 11 13 mph 1020.1mb 71f 65f
3:00am 3ft 8s 11 13 mph 1020mb 71f 65f
2:00am 3.5ft 4s 16 18 mph 1020.1mb 72f 65f
1:00am 3.5ft 4s 18 20 mph 1020.3mb 72f 66f
12:00am  -   -  18
mph
- - 67f
Sat 09/27 11:00pm 3.5ft 4s 18 20 mph 1020.2mb 72f 67f
10:00pm 3.5ft  -  18 22 mph 1020.1mb 71f 67f
9:00pm 3.5ft 4s 20 25 mph 1019.5mb 71f 67f
8:00pm 3.5ft 4s 18 20 mph 1018.7mb 71f 67f
6:00pm 3.5ft 4s 18 22 mph 1017.8mb 72f 67f
5:00pm 3.5ft 7s 18 22 mph 1017.2mb 71f 67f
4:00pm 3.5ft 7s 18 22 mph 1016.7mb 72f 69f
3:00pm 3ft 7s 16 18 mph 1016.5mb 71f 69f
2:00pm 3.5ft 8s 13 16 mph 1016.9mb 71f 69f
1:00pm 3ft 8s 13 18 mph 1017.2mb 72f 68f
12:00pm 3ft 8s 13 16 mph 1017.6mb 72f 68f
11:00am 3ft 8s 11 13 mph 1017.4mb 72f 69f
10:00am 3.5ft 8s 11 13 mph 1017.9mb 72f 69f
9:00am 3.5ft 8s 7 9 mph 1017.4mb 72f 69f
8:00am 3ft 8s 2 4 mph 1017.1mb 72f 69f
7:00am 3ft 8s 7 9 mph 1017mb 72f 69f
6:00am 3ft 8s 7 9 mph 1017mb 72f 69f
5:00am 3ft 8s 9
mph
1016.8mb 72f 69f
4:00am 3ft 9s 9
mph
1016.9mb 72f 69f
3:00am 3ft 9s 9
mph
1017.1mb 72f 69f
2:00am 2.5ft 8s 9
mph
1017.6mb 72f 69f
1:00am 3ft 9s 9 11 mph 1018mb 71f 70f